PWSweather.com
Personal Weather Stations
Station Observations
COONRAPIDS
Minneapolis, MN 55433

Minneapolis, MN 55433

Lat: 45.187721, Lon: -93.36828

Elevation: 898

Station Type: Davis Vantage Pro 2

High Low Average
Temperature 48.0°F8.9°C 41.5°F5.3°C 43.6°F6.4°C
Dew Point 35.4°F1.9°C 21.5°F-5.8°C 27.6°F-2.4°C
Winds 8.1 mph 13.0 kmh Calm Calm 2.0 mph NE3.2 kmh NE
Wind Gusts 18.4 mph29.6 kmh -- 5.0 mph8.0 kmh
Humidity 77% 42% 54%
Pressure 30.17 in1021.7 mb 29.79 in1008.8 mb -
Precipitation 0.05 in1.3 mm - -
Hour Temp Dew Point Humidity Winds Wind Gusts Pressure Precip Precip Rate Daily Precip Total
12:00 AM 44.9°F7.2°C 23.2°F-4.9°C 42% 1.2 mph NE1.9 kmh NE 1.2 mph1.9 kmh 30.17 in1021.7 mb - 0.00 in0.0 mm 0.00 in0.0 mm
12:10 AM 44.7°F7.1°C 23.5°F-4.7°C 43% 3.5 mph ENE5.6 kmh ENE 4.6 mph7.4 kmh 30.17 in1021.7 mb - 0.00 in0.0 mm 0.00 in0.0 mm
12:20 AM 44.5°F6.9°C 23.4°F-4.8°C 43% 1.2 mph NE1.9 kmh NE 8.1 mph13.0 kmh 30.16 in1021.3 mb - 0.00 in0.0 mm 0.00 in0.0 mm
12:30 AM 44.3°F6.8°C 23.2°F-4.9°C 43% 2.3 mph NE3.7 kmh NE 3.5 mph5.6 kmh 30.16 in1021.3 mb - 0.00 in0.0 mm 0.00 in0.0 mm
12:40 AM 44.2°F6.8°C 23.6°F-4.7°C 44% 1.2 mph NE1.9 kmh NE 4.6 mph7.4 kmh 30.16 in1021.3 mb - 0.00 in0.0 mm 0.00 in0.0 mm
12:50 AM 44.0°F6.7°C 24.0°F-4.4°C 45% 2.3 mph NE3.7 kmh NE 9.2 mph14.8 kmh 30.15 in1021.0 mb - 0.00 in0.0 mm 0.00 in0.0 mm
01:00 AM 43.8°F6.6°C 23.8°F-4.6°C 45% 1.2 mph NNE1.9 kmh NNE 4.6 mph7.4 kmh 30.15 in1021.0 mb - 0.00 in0.0 mm 0.00 in0.0 mm
01:10 AM 43.6°F6.4°C 23.7°F-4.6°C 45% 1.2 mph NE1.9 kmh NE 3.5 mph5.6 kmh 30.15 in1021.0 mb - 0.00 in0.0 mm 0.00 in0.0 mm
01:20 AM 43.5°F6.4°C 23.0°F-5.0°C 44% 2.3 mph ENE3.7 kmh ENE 3.5 mph5.6 kmh 30.14 in1020.7 mb - 0.00 in0.0 mm 0.00 in0.0 mm
01:30 AM 43.5°F6.4°C 23.5°F-4.7°C 45% 1.2 mph ENE1.9 kmh ENE 3.5 mph5.6 kmh 30.14 in1020.7 mb - 0.00 in0.0 mm 0.00 in0.0 mm
01:40 AM 43.3°F6.3°C 23.4°F-4.8°C 45% Calm Calm -- 30.15 in1021.0 mb - 0.00 in0.0 mm 0.00 in0.0 mm
01:50 AM 43.2°F6.2°C 23.8°F-4.6°C 46% Calm Calm -- 30.15 in1021.0 mb - 0.00 in0.0 mm 0.00 in0.0 mm
02:00 AM 43.1°F6.2°C 23.7°F-4.6°C 46% 1.2 mph NE1.9 kmh NE 4.6 mph7.4 kmh 30.14 in1020.7 mb - 0.00 in0.0 mm 0.00 in0.0 mm
02:10 AM 43.0°F6.1°C 23.1°F-4.9°C 45% 1.2 mph NE1.9 kmh NE 3.5 mph5.6 kmh 30.13 in1020.3 mb - 0.00 in0.0 mm 0.00 in0.0 mm
02:20 AM 42.9°F6.1°C 23.5°F-4.7°C 46% Calm Calm -- 30.12 in1020.0 mb - 0.00 in0.0 mm 0.00 in0.0 mm
02:30 AM 42.7°F5.9°C 23.3°F-4.8°C 46% 2.3 mph NE3.7 kmh NE 3.5 mph5.6 kmh 30.11 in1019.6 mb - 0.00 in0.0 mm 0.00 in0.0 mm
02:40 AM 42.4°F5.8°C 23.1°F-4.9°C 46% 2.3 mph NE3.7 kmh NE 3.5 mph5.6 kmh 30.11 in1019.6 mb - 0.00 in0.0 mm 0.00 in0.0 mm
02:50 AM 42.4°F5.8°C 23.6°F-4.7°C 47% Calm Calm 3.5 mph5.6 kmh 30.12 in1020.0 mb - 0.00 in0.0 mm 0.00 in0.0 mm
03:00 AM 42.4°F5.8°C 23.1°F-4.9°C 46% Calm Calm -- 30.11 in1019.6 mb - 0.00 in0.0 mm 0.00 in0.0 mm
03:10 AM 42.3°F5.7°C 23.5°F-4.7°C 47% 1.2 mph NE1.9 kmh NE 2.3 mph3.7 kmh 30.11 in1019.6 mb - 0.00 in0.0 mm 0.00 in0.0 mm
03:20 AM 42.3°F5.7°C 23.5°F-4.7°C 47% Calm Calm -- 30.12 in1020.0 mb - 0.00 in0.0 mm 0.00 in0.0 mm
03:30 AM 42.2°F5.7°C 23.4°F-4.8°C 47% Calm Calm 4.6 mph7.4 kmh 30.11 in1019.6 mb - 0.00 in0.0 mm 0.00 in0.0 mm
03:40 AM 42.1°F5.6°C 23.3°F-4.8°C 47% 1.2 mph NE1.9 kmh NE 4.6 mph7.4 kmh 30.10 in1019.3 mb - 0.00 in0.0 mm 0.00 in0.0 mm
03:50 AM 42.0°F5.6°C 23.7°F-4.6°C 48% Calm Calm -- 30.11 in1019.6 mb - 0.00 in0.0 mm 0.00 in0.0 mm
04:00 AM 42.0°F5.6°C 23.7°F-4.6°C 48% 2.3 mph NE3.7 kmh NE 3.5 mph5.6 kmh 30.10 in1019.3 mb - 0.00 in0.0 mm 0.00 in0.0 mm
04:10 AM 42.0°F5.6°C 23.7°F-4.6°C 48% 1.2 mph NE1.9 kmh NE -- 30.10 in1019.3 mb - 0.00 in0.0 mm 0.00 in0.0 mm
04:20 AM 42.1°F5.6°C 23.8°F-4.6°C 48% Calm Calm -- 30.09 in1019.0 mb - 0.00 in0.0 mm 0.00 in0.0 mm
04:30 AM 42.0°F5.6°C 23.7°F-4.6°C 48% 1.2 mph ENE1.9 kmh ENE 3.5 mph5.6 kmh 30.08 in1018.6 mb - 0.00 in0.0 mm 0.00 in0.0 mm
04:40 AM 42.0°F5.6°C 23.7°F-4.6°C 48% 1.2 mph NE1.9 kmh NE 2.3 mph3.7 kmh 30.07 in1018.3 mb - 0.00 in0.0 mm 0.00 in0.0 mm
04:50 AM 42.0°F5.6°C 23.7°F-4.6°C 48% Calm Calm 2.3 mph3.7 kmh 30.07 in1018.3 mb - 0.00 in0.0 mm 0.00 in0.0 mm
05:00 AM 41.9°F5.5°C 23.6°F-4.7°C 48% 1.2 mph NE1.9 kmh NE 3.5 mph5.6 kmh 30.06 in1017.9 mb - 0.00 in0.0 mm 0.00 in0.0 mm
05:10 AM 41.8°F5.4°C 23.0°F-5.0°C 47% Calm Calm 3.5 mph5.6 kmh 30.06 in1017.9 mb - 0.00 in0.0 mm 0.00 in0.0 mm
05:20 AM 41.8°F5.4°C 22.5°F-5.3°C 46% 2.3 mph NE3.7 kmh NE 4.6 mph7.4 kmh 30.06 in1017.9 mb - 0.00 in0.0 mm 0.00 in0.0 mm
05:30 AM 41.8°F5.4°C 22.0°F-5.6°C 45% 2.3 mph ENE3.7 kmh ENE 4.6 mph7.4 kmh 30.06 in1017.9 mb - 0.00 in0.0 mm 0.00 in0.0 mm
05:40 AM 41.8°F5.4°C 22.0°F-5.6°C 45% 2.3 mph ENE3.7 kmh ENE 3.5 mph5.6 kmh 30.06 in1017.9 mb - 0.00 in0.0 mm 0.00 in0.0 mm
05:50 AM 41.9°F5.5°C 21.5°F-5.8°C 44% Calm Calm 2.3 mph3.7 kmh 30.05 in1017.6 mb - 0.00 in0.0 mm 0.00 in0.0 mm
06:00 AM 41.9°F5.5°C 22.1°F-5.5°C 45% Calm Calm -- 30.05 in1017.6 mb - 0.00 in0.0 mm 0.00 in0.0 mm
06:10 AM 41.8°F5.4°C 22.5°F-5.3°C 46% Calm Calm -- 30.04 in1017.3 mb - 0.00 in0.0 mm 0.00 in0.0 mm
06:20 AM 41.9°F5.5°C 22.1°F-5.5°C 45% Calm Calm -- 30.03 in1016.9 mb - 0.00 in0.0 mm 0.00 in0.0 mm
06:30 AM 41.9°F5.5°C 22.6°F-5.2°C 46% 1.2 mph NE1.9 kmh NE 2.3 mph3.7 kmh 30.03 in1016.9 mb - 0.00 in0.0 mm 0.00 in0.0 mm
06:40 AM 41.9°F5.5°C 21.5°F-5.8°C 44% 2.3 mph NE3.7 kmh NE 3.5 mph5.6 kmh 30.03 in1016.9 mb - 0.00 in0.0 mm 0.00 in0.0 mm
06:50 AM 41.9°F5.5°C 21.6°F-5.8°C 44% Calm Calm 4.6 mph7.4 kmh 30.03 in1016.9 mb - 0.00 in0.0 mm 0.00 in0.0 mm
07:00 AM 42.1°F5.6°C 22.3°F-5.4°C 45% Calm Calm 3.5 mph5.6 kmh 30.03 in1016.9 mb - 0.00 in0.0 mm 0.00 in0.0 mm
07:10 AM 42.2°F5.7°C 22.4°F-5.3°C 45% Calm Calm 1.2 mph1.9 kmh 30.04 in1017.3 mb - 0.00 in0.0 mm 0.00 in0.0 mm
07:20 AM 42.3°F5.7°C 23.0°F-5.0°C 46% Calm Calm -- 30.04 in1017.3 mb - 0.00 in0.0 mm 0.00 in0.0 mm
07:30 AM 42.3°F5.7°C 23.0°F-5.0°C 46% Calm Calm -- 30.04 in1017.3 mb - 0.00 in0.0 mm 0.00 in0.0 mm
07:40 AM 42.3°F5.7°C 23.5°F-4.7°C 47% 1.2 mph NNE1.9 kmh NNE 2.3 mph3.7 kmh 30.03 in1016.9 mb - 0.00 in0.0 mm 0.00 in0.0 mm
07:50 AM 42.0°F5.6°C 23.7°F-4.6°C 48% Calm Calm -- 30.04 in1017.3 mb - 0.00 in0.0 mm 0.00 in0.0 mm
08:00 AM 41.8°F5.4°C 23.5°F-4.7°C 48% 1.2 mph NNE1.9 kmh NNE 4.6 mph7.4 kmh 30.03 in1016.9 mb - 0.00 in0.0 mm 0.00 in0.0 mm
08:10 AM 41.7°F5.4°C 23.4°F-4.8°C 48% Calm Calm 3.5 mph5.6 kmh 30.03 in1016.9 mb - 0.00 in0.0 mm 0.00 in0.0 mm
08:20 AM 41.7°F5.4°C 23.9°F-4.5°C 49% Calm Calm 2.3 mph3.7 kmh 30.03 in1016.9 mb - 0.00 in0.0 mm 0.00 in0.0 mm
08:30 AM 42.0°F5.6°C 23.7°F-4.6°C 48% 1.2 mph NE1.9 kmh NE 4.6 mph7.4 kmh 30.02 in1016.6 mb - 0.00 in0.0 mm 0.00 in0.0 mm
08:40 AM 42.4°F5.8°C 24.1°F-4.4°C 48% Calm Calm 5.8 mph9.3 kmh 30.03 in1016.9 mb - 0.00 in0.0 mm 0.00 in0.0 mm
08:50 AM 42.5°F5.8°C 23.7°F-4.6°C 47% 4.6 mph NE7.4 kmh NE 10.4 mph16.7 kmh 30.02 in1016.6 mb - 0.00 in0.0 mm 0.00 in0.0 mm
09:00 AM 42.4°F5.8°C 24.6°F-4.1°C 49% 1.2 mph NE1.9 kmh NE 3.5 mph5.6 kmh 30.01 in1016.3 mb - 0.00 in0.0 mm 0.00 in0.0 mm
09:10 AM 42.9°F6.1°C 24.5°F-4.2°C 48% 2.3 mph NE3.7 kmh NE 3.5 mph5.6 kmh 30.02 in1016.6 mb - 0.00 in0.0 mm 0.00 in0.0 mm
09:20 AM 43.6°F6.4°C 24.7°F-4.1°C 47% 4.6 mph NE7.4 kmh NE 9.2 mph14.8 kmh 30.01 in1016.3 mb - 0.00 in0.0 mm 0.00 in0.0 mm
09:30 AM 44.0°F6.7°C 25.5°F-3.6°C 48% Calm Calm 2.3 mph3.7 kmh 30.01 in1016.3 mb - 0.00 in0.0 mm 0.00 in0.0 mm
09:40 AM 44.3°F6.8°C 26.8°F-2.9°C 50% 1.2 mph NE1.9 kmh NE 1.2 mph1.9 kmh 30.01 in1016.3 mb - 0.00 in0.0 mm 0.00 in0.0 mm
09:50 AM 44.3°F6.8°C 27.3°F-2.6°C 51% 1.2 mph NE1.9 kmh NE -- 30.01 in1016.3 mb - 0.00 in0.0 mm 0.00 in0.0 mm
10:00 AM 44.6°F7.0°C 28.0°F-2.2°C 52% Calm Calm -- 30.01 in1016.3 mb - 0.00 in0.0 mm 0.00 in0.0 mm
10:10 AM 44.7°F7.1°C 29.1°F-1.6°C 54% 3.5 mph NE5.6 kmh NE 9.2 mph14.8 kmh 30.01 in1016.3 mb - 0.00 in0.0 mm 0.00 in0.0 mm
10:20 AM 44.1°F6.7°C 29.8°F-1.2°C 57% 1.2 mph ENE1.9 kmh ENE 2.3 mph3.7 kmh 30.02 in1016.6 mb - 0.00 in0.0 mm 0.00 in0.0 mm
10:30 AM 43.6°F6.4°C 29.8°F-1.2°C 58% 1.2 mph NE1.9 kmh NE 1.2 mph1.9 kmh 30.02 in1016.6 mb - 0.00 in0.0 mm 0.00 in0.0 mm
10:40 AM 43.4°F6.3°C 31.6°F-0.2°C 63% Calm Calm -- 30.02 in1016.6 mb - 0.01 in0.3 mm 0.01 in0.3 mm
10:50 AM 42.7°F5.9°C 31.7°F-0.2°C 65% Calm Calm 9.2 mph14.8 kmh 30.02 in1016.6 mb - 0.00 in0.0 mm 0.01 in0.3 mm
11:00 AM 41.9°F5.5°C 32.8°F0.4°C 70% 3.5 mph NE5.6 kmh NE 11.5 mph18.5 kmh 30.02 in1016.6 mb - 0.01 in0.3 mm 0.02 in0.5 mm
11:10 AM 41.5°F5.3°C 33.1°F0.6°C 72% Calm Calm -- 30.01 in1016.3 mb - 0.01 in0.3 mm 0.03 in0.8 mm
11:20 AM 41.7°F5.4°C 34.4°F1.3°C 75% Calm Calm -- 30.01 in1016.3 mb - 0.00 in0.0 mm 0.03 in0.8 mm
11:30 AM 42.1°F5.6°C 35.4°F1.9°C 77% 2.3 mph NE3.7 kmh NE 9.2 mph14.8 kmh 30.00 in1015.9 mb - 0.01 in0.3 mm 0.04 in1.0 mm
11:40 AM 41.7°F5.4°C 34.0°F1.1°C 74% 3.5 mph ENE5.6 kmh ENE 3.5 mph5.6 kmh 29.99 in1015.6 mb - 0.00 in0.0 mm 0.04 in1.0 mm
11:50 AM 41.8°F5.4°C 34.5°F1.4°C 75% 2.3 mph NE3.7 kmh NE 3.5 mph5.6 kmh 29.98 in1015.2 mb - 0.00 in0.0 mm 0.04 in1.0 mm
12:00 PM 41.9°F5.5°C 34.6°F1.4°C 75% Calm Calm 3.5 mph5.6 kmh 29.98 in1015.2 mb - 0.00 in0.0 mm 0.04 in1.0 mm
12:10 PM 41.7°F5.4°C 34.4°F1.3°C 75% 3.5 mph NNE5.6 kmh NNE 8.1 mph13.0 kmh 29.97 in1014.9 mb - 0.01 in0.3 mm 0.05 in1.3 mm
12:20 PM 41.8°F5.4°C 34.5°F1.4°C 75% 3.5 mph NE5.6 kmh NE 5.8 mph9.3 kmh 29.96 in1014.6 mb - 0.00 in0.0 mm 0.05 in1.3 mm
12:30 PM 42.0°F5.6°C 34.3°F1.3°C 74% 3.5 mph NE5.6 kmh NE 6.9 mph11.1 kmh 29.95 in1014.2 mb - 0.00 in0.0 mm 0.05 in1.3 mm
12:40 PM 42.3°F5.7°C 34.9°F1.6°C 75% 4.6 mph NE7.4 kmh NE 9.2 mph14.8 kmh 29.94 in1013.9 mb - 0.00 in0.0 mm 0.05 in1.3 mm
12:50 PM 43.0°F6.1°C 34.9°F1.6°C 73% 3.5 mph NNE5.6 kmh NNE 5.8 mph9.3 kmh 29.93 in1013.5 mb - 0.00 in0.0 mm 0.05 in1.3 mm
01:00 PM 43.3°F6.3°C 35.2°F1.8°C 73% 3.5 mph NE5.6 kmh NE 9.2 mph14.8 kmh 29.93 in1013.5 mb - 0.00 in0.0 mm 0.05 in1.3 mm
01:10 PM 43.2°F6.2°C 34.4°F1.3°C 71% 3.5 mph NE5.6 kmh NE 11.5 mph18.5 kmh 29.93 in1013.5 mb - 0.00 in0.0 mm 0.05 in1.3 mm
01:20 PM 43.2°F6.2°C 33.7°F0.9°C 69% 5.8 mph NE9.3 kmh NE 9.2 mph14.8 kmh 29.92 in1013.2 mb - 0.00 in0.0 mm 0.05 in1.3 mm
01:30 PM 43.5°F6.4°C 34.0°F1.1°C 69% 5.8 mph NE9.3 kmh NE 18.4 mph29.6 kmh 29.91 in1012.9 mb - 0.00 in0.0 mm 0.05 in1.3 mm
01:40 PM 44.0°F6.7°C 33.8°F1.0°C 67% 5.8 mph ENE9.3 kmh ENE 9.2 mph14.8 kmh 29.91 in1012.9 mb - 0.00 in0.0 mm 0.05 in1.3 mm
01:50 PM 45.0°F7.2°C 33.9°F1.1°C 65% 5.8 mph NE9.3 kmh NE 9.2 mph14.8 kmh 29.90 in1012.5 mb - 0.00 in0.0 mm 0.05 in1.3 mm
02:00 PM 45.8°F7.7°C 33.1°F0.6°C 61% 6.9 mph NE11.1 kmh NE 13.8 mph22.2 kmh 29.89 in1012.2 mb - 0.00 in0.0 mm 0.05 in1.3 mm
02:10 PM 45.8°F7.7°C 32.7°F0.4°C 60% 5.8 mph NE9.3 kmh NE 9.2 mph14.8 kmh 29.89 in1012.2 mb - 0.00 in0.0 mm 0.05 in1.3 mm
02:20 PM 46.0°F7.8°C 32.5°F0.3°C 59% 5.8 mph NE9.3 kmh NE 5.8 mph9.3 kmh 29.88 in1011.9 mb - 0.00 in0.0 mm 0.05 in1.3 mm
02:30 PM 46.4°F8.0°C 32.4°F0.2°C 58% 8.1 mph ENE13.0 kmh ENE 11.5 mph18.5 kmh 29.88 in1011.9 mb - 0.00 in0.0 mm 0.05 in1.3 mm
02:40 PM 46.9°F8.3°C 32.0°F0.0°C 56% 6.9 mph NE11.1 kmh NE 11.5 mph18.5 kmh 29.86 in1011.2 mb - 0.00 in0.0 mm 0.05 in1.3 mm
02:50 PM 47.0°F8.3°C 32.5°F0.3°C 57% 4.6 mph ENE7.4 kmh ENE 9.2 mph14.8 kmh 29.87 in1011.5 mb - 0.00 in0.0 mm 0.05 in1.3 mm
03:00 PM 47.1°F8.4°C 32.2°F0.1°C 56% 3.5 mph NE5.6 kmh NE 13.8 mph22.2 kmh 29.87 in1011.5 mb - 0.00 in0.0 mm 0.05 in1.3 mm
03:10 PM 46.9°F8.3°C 31.6°F-0.2°C 55% 5.8 mph ENE9.3 kmh ENE 9.2 mph14.8 kmh 29.87 in1011.5 mb - 0.00 in0.0 mm 0.05 in1.3 mm
03:20 PM 47.1°F8.4°C 32.2°F0.1°C 56% 4.6 mph NE7.4 kmh NE 9.2 mph14.8 kmh 29.86 in1011.2 mb - 0.00 in0.0 mm 0.05 in1.3 mm
03:30 PM 47.3°F8.5°C 31.9°F-0.1°C 55% 8.1 mph ENE13.0 kmh ENE 12.7 mph20.4 kmh 29.85 in1010.8 mb - 0.00 in0.0 mm 0.05 in1.3 mm
03:40 PM 47.6°F8.7°C 31.8°F-0.1°C 54% 4.6 mph ENE7.4 kmh ENE 3.5 mph5.6 kmh 29.84 in1010.5 mb - 0.00 in0.0 mm 0.05 in1.3 mm
04:00 PM 47.8°F8.8°C 31.5°F-0.3°C 53% 4.6 mph NE7.4 kmh NE 8.1 mph13.0 kmh 29.83 in1010.2 mb - 0.00 in0.0 mm 0.05 in1.3 mm
04:10 PM 48.0°F8.9°C 32.1°F0.1°C 54% 3.5 mph NNE5.6 kmh NNE 11.5 mph18.5 kmh 29.83 in1010.2 mb - 0.00 in0.0 mm 0.05 in1.3 mm
04:20 PM 47.9°F8.8°C 32.5°F0.3°C 55% 4.6 mph ENE7.4 kmh ENE 9.2 mph14.8 kmh 29.83 in1010.2 mb - 0.00 in0.0 mm 0.05 in1.3 mm
04:30 PM 47.4°F8.6°C 33.0°F0.6°C 57% 5.8 mph ENE9.3 kmh ENE 13.8 mph22.2 kmh 29.83 in1010.2 mb - 0.00 in0.0 mm 0.05 in1.3 mm
04:40 PM 46.9°F8.3°C 33.3°F0.7°C 59% 4.6 mph NE7.4 kmh NE 8.1 mph13.0 kmh 29.81 in1009.5 mb - 0.00 in0.0 mm 0.05 in1.3 mm
04:50 PM 46.4°F8.0°C 33.7°F0.9°C 61% 5.8 mph NE9.3 kmh NE 8.1 mph13.0 kmh 29.82 in1009.8 mb - 0.00 in0.0 mm 0.05 in1.3 mm
05:00 PM 46.1°F7.8°C 34.2°F1.2°C 63% 4.6 mph NE7.4 kmh NE 11.5 mph18.5 kmh 29.81 in1009.5 mb - 0.00 in0.0 mm 0.05 in1.3 mm
05:10 PM 46.0°F7.8°C 33.7°F0.9°C 62% 3.5 mph NE5.6 kmh NE 6.9 mph11.1 kmh 29.81 in1009.5 mb - 0.00 in0.0 mm 0.05 in1.3 mm
05:20 PM 46.0°F7.8°C 33.7°F0.9°C 62% 2.3 mph NE3.7 kmh NE 10.4 mph16.7 kmh 29.80 in1009.1 mb - 0.00 in0.0 mm 0.05 in1.3 mm
05:30 PM 46.0°F7.8°C 33.3°F0.7°C 61% 6.9 mph ENE11.1 kmh ENE 13.8 mph22.2 kmh 29.79 in1008.8 mb - 0.00 in0.0 mm 0.05 in1.3 mm
05:40 PM 46.1°F7.8°C 33.0°F0.6°C 60% 4.6 mph ENE7.4 kmh ENE 9.2 mph14.8 kmh 29.79 in1008.8 mb - 0.00 in0.0 mm 0.05 in1.3 mm
05:50 PM 46.1°F7.8°C 32.6°F0.3°C 59% 4.6 mph NE7.4 kmh NE 6.9 mph11.1 kmh 29.79 in1008.8 mb - 0.00 in0.0 mm 0.05 in1.3 mm
06:00 PM 46.0°F7.8°C 32.0°F0.0°C 58% 5.8 mph ENE9.3 kmh ENE 13.8 mph22.2 kmh 29.77 in1008.1 mb - 0.00 in0.0 mm 0.05 in1.3 mm
06:10 PM 45.9°F7.7°C 31.9°F-0.1°C 58% 5.8 mph NE9.3 kmh NE 10.4 mph16.7 kmh 29.77 in1008.1 mb - 0.00 in0.0 mm 0.05 in1.3 mm
06:20 PM 45.6°F7.6°C 32.1°F0.1°C 59% 9.2 mph NE14.8 kmh NE 15.0 mph24.1 kmh 29.75 in1007.5 mb - 0.00 in0.0 mm 0.05 in1.3 mm
06:30 PM 45.5°F7.5°C 32.0°F0.0°C 59% 3.5 mph NE5.6 kmh NE 6.9 mph11.1 kmh 29.74 in1007.1 mb - 0.00 in0.0 mm 0.05 in1.3 mm
06:40 PM 45.4°F7.4°C 31.0°F-0.6°C 57% 6.9 mph NE11.1 kmh NE 11.5 mph18.5 kmh 29.74 in1007.1 mb - 0.00 in0.0 mm 0.05 in1.3 mm
06:50 PM 45.2°F7.3°C 31.8°F-0.1°C 59% 5.8 mph NE9.3 kmh NE 8.1 mph13.0 kmh 29.73 in1006.8 mb - 0.00 in0.0 mm 0.05 in1.3 mm
07:00 PM 44.8°F7.1°C 31.4°F-0.3°C 59% 8.1 mph NE13.0 kmh NE 11.5 mph18.5 kmh 29.71 in1006.1 mb - 0.00 in0.0 mm 0.05 in1.3 mm
07:10 PM 44.5°F6.9°C 31.1°F-0.5°C 59% 8.1 mph NE13.0 kmh NE 17.3 mph27.8 kmh 29.72 in1006.4 mb - 0.00 in0.0 mm 0.05 in1.3 mm
07:20 PM 44.2°F6.8°C 31.5°F-0.3°C 61% 5.8 mph NNE9.3 kmh NNE 15.0 mph24.1 kmh 29.72 in1006.4 mb - 0.00 in0.0 mm 0.05 in1.3 mm
07:30 PM 43.3°F6.3°C 32.3°F0.2°C 65% 3.5 mph NE5.6 kmh NE 15.0 mph24.1 kmh 29.72 in1006.4 mb - 0.00 in0.0 mm 0.05 in1.3 mm
07:40 PM 42.9°F6.1°C 31.6°F-0.2°C 64% 5.8 mph ENE9.3 kmh ENE 9.2 mph14.8 kmh 29.73 in1006.8 mb - 0.00 in0.0 mm 0.05 in1.3 mm
07:50 PM 43.0°F6.1°C 31.6°F-0.2°C 64% 2.3 mph NE3.7 kmh NE 8.1 mph13.0 kmh 29.73 in1006.8 mb - 0.00 in0.0 mm 0.05 in1.3 mm
08:00 PM 42.9°F6.1°C 31.9°F-0.1°C 65% 2.3 mph ENE3.7 kmh ENE 10.4 mph16.7 kmh 29.72 in1006.4 mb - 0.00 in0.0 mm 0.05 in1.3 mm
08:10 PM 42.7°F5.9°C 32.1°F0.1°C 66% 4.6 mph NE7.4 kmh NE 4.6 mph7.4 kmh 29.73 in1006.8 mb - 0.00 in0.0 mm 0.05 in1.3 mm
08:20 PM 42.5°F5.8°C 32.3°F0.2°C 67% 4.6 mph NE7.4 kmh NE 6.9 mph11.1 kmh 29.72 in1006.4 mb - 0.00 in0.0 mm 0.05 in1.3 mm
08:30 PM 42.1°F5.6°C 32.7°F0.4°C 69% 4.6 mph NE7.4 kmh NE 10.4 mph16.7 kmh 29.71 in1006.1 mb - 0.01 in0.3 mm 0.06 in1.5 mm
08:40 PM 41.5°F5.3°C 33.1°F0.6°C 72% 3.5 mph NE5.6 kmh NE 10.4 mph16.7 kmh 29.71 in1006.1 mb - 0.00 in0.0 mm 0.06 in1.5 mm
08:50 PM 41.2°F5.1°C 33.2°F0.7°C 73% 3.5 mph NE5.6 kmh NE 4.6 mph7.4 kmh 29.71 in1006.1 mb - 0.00 in0.0 mm 0.06 in1.5 mm
09:00 PM 41.0°F5.0°C 33.3°F0.7°C 74% 4.6 mph NNE7.4 kmh NNE 11.5 mph18.5 kmh 29.70 in1005.8 mb - 0.01 in0.3 mm 0.07 in1.8 mm
09:10 PM 40.7°F4.8°C 33.3°F0.7°C 75% 3.5 mph NE5.6 kmh NE 11.5 mph18.5 kmh 29.70 in1005.8 mb - 0.00 in0.0 mm 0.07 in1.8 mm
09:20 PM 40.1°F4.5°C 33.5°F0.8°C 77% 4.6 mph NE7.4 kmh NE 9.2 mph14.8 kmh 29.69 in1005.4 mb - 0.01 in0.3 mm 0.08 in2.0 mm
09:30 PM 39.6°F4.2°C 33.6°F0.9°C 79% 5.8 mph NE9.3 kmh NE 8.1 mph13.0 kmh 29.69 in1005.4 mb - 0.01 in0.3 mm 0.09 in2.3 mm
09:40 PM 39.2°F4.0°C 33.5°F0.8°C 80% 4.6 mph NE7.4 kmh NE 4.6 mph7.4 kmh 29.68 in1005.1 mb - 0.01 in0.3 mm 0.10 in2.5 mm
09:50 PM 38.8°F3.8°C 33.8°F1.0°C 82% 4.6 mph NE7.4 kmh NE 8.1 mph13.0 kmh 29.67 in1004.7 mb - 0.01 in0.3 mm 0.11 in2.8 mm
10:00 PM 38.5°F3.6°C 33.5°F0.8°C 82% 3.5 mph NE5.6 kmh NE 4.6 mph7.4 kmh 29.66 in1004.4 mb - 0.00 in0.0 mm 0.11 in2.8 mm
10:10 PM 38.3°F3.5°C 33.6°F0.9°C 83% 3.5 mph NE5.6 kmh NE 8.1 mph13.0 kmh 29.66 in1004.4 mb - 0.01 in0.3 mm 0.12 in3.0 mm
10:20 PM 37.9°F3.3°C 33.2°F0.7°C 83% 2.3 mph NE3.7 kmh NE 3.5 mph5.6 kmh 29.68 in1005.1 mb - 0.03 in0.8 mm 0.15 in3.8 mm
10:30 PM 37.5°F3.1°C 32.8°F0.4°C 83% 2.3 mph NNE3.7 kmh NNE 3.5 mph5.6 kmh 29.69 in1005.4 mb - 0.04 in1.0 mm 0.18 in4.6 mm
10:40 PM 37.2°F2.9°C 32.8°F0.4°C 84% Calm Calm -- 29.70 in1005.8 mb - 0.05 in1.3 mm 0.22 in5.6 mm
10:50 PM 37.0°F2.8°C 32.6°F0.3°C 84% Calm Calm -- 29.72 in1006.4 mb - 0.05 in1.3 mm 0.27 in6.9 mm
11:00 PM 36.8°F2.7°C 32.7°F0.4°C 85% Calm Calm -- 29.74 in1007.1 mb - 0.07 in1.8 mm 0.36 in9.1 mm
11:10 PM 36.6°F2.6°C 32.5°F0.3°C 85% Calm Calm -- 29.74 in1007.1 mb - 0.08 in2.0 mm 0.08 in2.0 mm
11:20 PM 36.2°F2.3°C 32.1°F0.1°C 85% 1.2 mph NE1.9 kmh NE 3.5 mph5.6 kmh 29.72 in1006.4 mb - 0.07 in1.8 mm 0.14 in3.6 mm
11:30 PM 35.9°F2.2°C 32.1°F0.1°C 86% 2.3 mph NNE3.7 kmh NNE 3.5 mph5.6 kmh 29.70 in1005.8 mb - 0.05 in1.3 mm 0.18 in4.6 mm
11:40 PM 35.6°F2.0°C 31.8°F-0.1°C 86% 3.5 mph NE5.6 kmh NE 4.6 mph7.4 kmh 29.67 in1004.7 mb - 0.04 in1.0 mm 0.22 in5.6 mm
11:50 PM 35.4°F1.9°C 31.9°F-0.1°C 87% 3.5 mph NNE5.6 kmh NNE 4.6 mph7.4 kmh 29.67 in1004.7 mb - 0.04 in1.0 mm 0.26 in6.6 mm